Center Line, MI (48015)

8:55 PM EST on January 26, 2015 (GMT -0500)
Fitzgerald | Change Station
CLOSE
Current Station
Personal Weather Station
Location: Warren, MI
Elevation: 636 ft
Nearby Weather Stations

Elev 636 ft 42.45 °N, 83.06 °W | Updated 15 minutes ago

Partly Cloudy
Partly Cloudy
16.3 °F
Feels Like 16 °F
N
2.7
Wind Variable Wind from ENE

Today
High -- | Low -- °F
--% Chance of Precip.
Yesterday
High -- | Low -- °F
Precip. -- in
7:51 AM 5:37 PM
Waxing Crescent, 49% visible
Pressure 30.00 in
Visibility 10.0 miles
Clouds Clear
Windchill 16 °F
Dew Point 12 °F
Humidity 83%
Rainfall 0.00 in
Snow Depth Not available.
UV 0 out of 12
Pollen .10 out of 12
Air Quality Not available.
Flu Activity Not available.
METAR KDET 270053Z 04006KT 10SM CLR M07/M12 A2997 RMK AO2 SLP159 T10671122

More Conditions Fewer Conditions

Pressure 30.00 in
Visibility 10.0 miles
Clouds Clear
Windchill 16 °F
Dew Point 12 °F
Humidity 83%
Rainfall 0.00 in
Snow Depth Not available.
UV 0 out of 12
Pollen .10 out of 12
Air Quality Not available.
Flu Activity Not available.
METAR KDET 270053Z 04006KT 10SM CLR M07/M12 A2997 RMK AO2 SLP159 T10671122

More Conditions Fewer Conditions

10-Day Weather Forecast

Almanac

Astronomy

Jan. 26, 2015 Rise Set
Actual Time
Civil Twilight
Nautical Twilight
Astronomical Twilight
Moon
Length of Visible Light
Length of Day
Tomorrow will be .
, % of the Moon is Illuminated

Today's Extremes

State Highs State Lows

Community

WunderPhotos

Upload Photos

1,790,451 photos uploaded!

WunderBlogs® & News

Nearby

Air Quality

  Air Quality AQ Index Pollutant
Not available.

Snow Depth

Station Depth Elevation

Earthquake Activity

City Distance Mag. Time & Date
Minimum magnitude displayed is 2.5.

Coastal Water Temperatures

Place Temperature

Nearby Weather Stations